createdAt,value
2023-03-27T00:02:26.192Z,60.57
2023-03-27T00:04:54.711Z,60.37
2023-03-27T00:07:22.705Z,59.01
2023-03-27T00:09:50.527Z,59.07
2023-03-27T00:12:18.232Z,58.65
2023-03-27T00:14:46.435Z,59.30
2023-03-27T00:17:13.825Z,59.03
2023-03-27T00:19:41.479Z,58.25
2023-03-27T00:22:09.459Z,58.97
2023-03-27T00:24:37.384Z,58.67
2023-03-27T00:27:05.047Z,58.95
2023-03-27T00:29:33.332Z,58.19
2023-03-27T00:32:00.940Z,58.48
2023-03-27T00:34:30.168Z,57.82
2023-03-27T00:36:57.772Z,57.14
2023-03-27T00:39:25.209Z,56.52
2023-03-27T00:41:55.466Z,56.09
2023-03-27T00:44:38.008Z,56.35
2023-03-27T00:47:09.326Z,56.57
2023-03-27T00:49:37.461Z,56.33
2023-03-27T00:52:06.775Z,55.79
2023-03-27T00:54:38.729Z,55.76
2023-03-27T00:57:08.322Z,55.93
2023-03-27T00:59:39.716Z,56.04
2023-03-27T01:02:08.123Z,55.98
2023-03-27T01:04:37.751Z,57.29
2023-03-27T01:07:07.449Z,56.66
2023-03-27T01:09:34.941Z,56.55
2023-03-27T01:12:20.213Z,56.94
2023-03-27T01:15:04.943Z,57.11
2023-03-27T01:17:49.372Z,56.94
2023-03-27T01:20:16.768Z,56.21
2023-03-27T01:23:36.247Z,56.36
2023-03-27T01:26:44.222Z,56.00
2023-03-27T01:29:21.360Z,56.88
2023-03-27T01:32:11.084Z,56.45
2023-03-27T01:34:48.132Z,56.23
2023-03-27T01:37:56.900Z,55.97
2023-03-27T01:40:33.090Z,56.71
2023-03-27T01:43:00.403Z,56.53
2023-03-27T01:45:36.660Z,56.42
2023-03-27T01:48:13.376Z,57.06
2023-03-27T01:50:52.169Z,57.13
2023-03-27T01:53:53.610Z,56.88
2023-03-27T01:56:27.363Z,56.32
2023-03-27T01:59:04.071Z,56.37
2023-03-27T02:01:36.819Z,56.03
2023-03-27T02:04:07.598Z,55.88
2023-03-27T02:06:40.518Z,56.40
2023-03-27T02:09:28.459Z,56.57
2023-03-27T02:12:17.158Z,56.23
2023-03-27T02:15:26.170Z,55.61
2023-03-27T02:17:50.397Z,56.38
2023-03-27T02:20:18.260Z,58.24
2023-03-27T02:22:48.852Z,57.25
2023-03-27T02:25:39.009Z,56.62
2023-03-27T02:28:44.943Z,58.13
2023-03-27T02:31:33.942Z,58.38
2023-03-27T02:34:24.394Z,58.04
2023-03-27T02:37:17.565Z,58.28
2023-03-27T02:39:55.821Z,59.59
2023-03-27T02:42:32.748Z,57.84
2023-03-27T02:45:31.797Z,57.51
2023-03-27T02:48:11.743Z,56.91
2023-03-27T02:50:53.961Z,56.34
2023-03-27T02:53:24.067Z,56.50
2023-03-27T02:55:57.288Z,56.91
2023-03-27T02:58:30.772Z,57.33
2023-03-27T03:00:59.805Z,56.81
2023-03-27T03:03:44.354Z,56.48
2023-03-27T03:06:14.344Z,56.18
2023-03-27T03:08:43.271Z,56.43
2023-03-27T03:11:13.497Z,56.26
2023-03-27T03:13:41.398Z,56.61
2023-03-27T03:16:10.173Z,57.15
2023-03-27T03:18:37.847Z,56.80
2023-03-27T03:21:05.833Z,56.30
2023-03-27T03:23:34.045Z,56.15
2023-03-27T03:26:03.139Z,55.95
2023-03-27T03:28:35.096Z,55.77
2023-03-27T03:31:03.050Z,55.67
2023-03-27T03:33:31.764Z,55.74
2023-03-27T03:36:00.822Z,56.22
2023-03-27T03:38:30.010Z,56.21
2023-03-27T03:41:06.313Z,56.23
2023-03-27T03:43:34.301Z,56.06
2023-03-27T03:46:02.211Z,56.18
2023-03-27T03:48:29.638Z,56.24
2023-03-27T03:50:57.536Z,56.36
2023-03-27T03:53:25.256Z,55.99
2023-03-27T03:55:53.453Z,56.22
2023-03-27T03:58:21.542Z,56.02
2023-03-27T04:01:04.243Z,55.57
2023-03-27T04:03:32.908Z,56.00
2023-03-27T04:06:07.376Z,55.80
2023-03-27T04:08:35.420Z,56.04
2023-03-27T04:11:05.064Z,56.24
2023-03-27T04:13:33.150Z,56.83
2023-03-27T04:16:01.966Z,56.17
2023-03-27T04:18:33.021Z,56.62
2023-03-27T04:21:01.638Z,56.46
2023-03-27T04:23:32.226Z,57.13
2023-03-27T04:26:01.072Z,57.33
2023-03-27T04:28:34.318Z,56.99
2023-03-27T04:31:06.589Z,56.70
2023-03-27T04:33:39.837Z,57.35
2023-03-27T04:36:09.226Z,57.03
2023-03-27T04:38:39.658Z,56.33
2023-03-27T04:41:07.632Z,56.58
2023-03-27T04:43:40.288Z,56.53
2023-03-27T04:46:08.433Z,56.37
2023-03-27T04:48:38.565Z,57.17
2023-03-27T04:51:10.049Z,56.82
2023-03-27T04:53:38.039Z,56.55
2023-03-27T04:56:06.874Z,56.56
2023-03-27T04:58:37.285Z,57.40
2023-03-27T05:01:06.703Z,56.69
2023-03-27T05:03:39.124Z,56.92
2023-03-27T05:06:08.451Z,57.63
2023-03-27T05:08:37.204Z,57.75
2023-03-27T05:11:04.889Z,57.36
2023-03-27T05:13:36.770Z,57.95
2023-03-27T05:16:05.015Z,58.16
2023-03-27T05:18:35.807Z,57.28
2023-03-27T05:21:05.032Z,57.47
2023-03-27T05:23:32.673Z,57.94
2023-03-27T05:26:01.106Z,57.60
2023-03-27T05:28:34.373Z,56.96
2023-03-27T05:31:01.906Z,57.44
2023-03-27T05:33:30.245Z,56.86
2023-03-27T05:35:58.705Z,56.53
2023-03-27T05:38:26.643Z,55.88
2023-03-27T05:40:56.472Z,56.84
2023-03-27T05:43:24.775Z,56.50
2023-03-27T05:45:52.383Z,56.42
2023-03-27T05:48:20.300Z,56.44
2023-03-27T05:50:48.061Z,57.32
2023-03-27T05:53:15.842Z,57.13
2023-03-27T05:55:44.817Z,57.41
2023-03-27T05:58:13.477Z,57.06
2023-03-27T06:00:44.431Z,56.56
2023-03-27T06:03:13.968Z,57.04
2023-03-27T06:05:42.687Z,57.15
2023-03-27T06:08:12.945Z,57.69
2023-03-27T06:10:42.128Z,57.40
2023-03-27T06:13:12.919Z,57.69
2023-03-27T06:15:44.750Z,57.05
2023-03-27T06:18:15.100Z,57.28
2023-03-27T06:20:42.797Z,57.62
2023-03-27T06:23:10.576Z,56.63
2023-03-27T06:25:39.422Z,56.40
2023-03-27T06:28:09.466Z,56.23
2023-03-27T06:30:38.901Z,56.98
2023-03-27T06:33:09.858Z,56.88
2023-03-27T06:35:37.455Z,56.70
2023-03-27T06:38:07.086Z,56.40
2023-03-27T06:40:35.504Z,56.90
2023-03-27T06:43:08.191Z,56.57
2023-03-27T06:45:49.091Z,56.29
2023-03-27T06:48:22.039Z,56.29
2023-03-27T06:50:52.130Z,56.01
2023-03-27T06:55:51.399Z,55.71
2023-03-27T06:58:19.553Z,56.11
2023-03-27T07:00:49.768Z,56.29
2023-03-27T07:03:24.099Z,56.41
2023-03-27T07:05:53.282Z,55.67
2023-03-27T07:08:24.854Z,55.84
2023-03-27T07:13:25.151Z,55.33
2023-03-27T07:15:54.172Z,55.37
2023-03-27T07:18:22.775Z,55.51
2023-03-27T07:20:51.162Z,56.73
2023-03-27T07:23:18.930Z,56.56
2023-03-27T07:25:50.045Z,56.80
2023-03-27T07:28:21.078Z,56.52
2023-03-27T07:30:48.657Z,56.40
2023-03-27T07:33:20.684Z,57.39
2023-03-27T07:35:48.804Z,58.01
2023-03-27T07:38:18.720Z,57.25
2023-03-27T07:40:53.055Z,57.36
2023-03-27T07:43:21.994Z,56.84
2023-03-27T07:45:49.920Z,58.41
2023-03-27T07:48:18.730Z,57.92
2023-03-27T07:50:46.408Z,59.02
2023-03-27T07:53:33.439Z,59.07
2023-03-27T07:56:03.763Z,57.76
2023-03-27T07:58:32.316Z,58.29
2023-03-27T08:01:00.596Z,58.45
2023-03-27T08:03:31.238Z,60.02
2023-03-27T08:06:00.579Z,59.68
2023-03-27T08:08:29.613Z,60.78
2023-03-27T08:10:57.927Z,62.58
2023-03-27T08:13:26.287Z,62.20
2023-03-27T08:16:17.823Z,60.33
2023-03-27T08:18:46.912Z,60.10
2023-03-27T08:21:14.691Z,59.68
2023-03-27T08:23:42.737Z,59.07
2023-03-27T08:26:15.527Z,58.41
2023-03-27T08:28:46.131Z,59.96
2023-03-27T08:31:15.802Z,58.02
2023-03-27T08:33:43.843Z,57.74
2023-03-27T08:36:12.075Z,57.14
2023-03-27T08:38:39.690Z,57.67
2023-03-27T08:41:08.000Z,60.38
2023-03-27T08:43:42.091Z,59.13
2023-03-27T08:46:20.959Z,58.86
2023-03-27T08:49:05.003Z,59.72
2023-03-27T08:51:42.223Z,58.95
2023-03-27T08:54:16.580Z,59.38
2023-03-27T08:56:45.611Z,60.05
2023-03-27T08:59:17.344Z,59.37
2023-03-27T09:01:57.691Z,58.94
2023-03-27T09:04:28.470Z,59.34
2023-03-27T09:07:05.488Z,59.50
2023-03-27T09:09:55.565Z,59.60
2023-03-27T09:12:34.204Z,59.52
2023-03-27T09:15:10.004Z,59.30
2023-03-27T09:17:42.137Z,60.87
2023-03-27T09:20:10.124Z,62.36
2023-03-27T09:22:43.974Z,61.15
2023-03-27T09:25:38.125Z,62.01
2023-03-27T09:28:15.787Z,63.25
2023-03-27T09:30:43.756Z,62.34
2023-03-27T09:33:12.365Z,64.00
2023-03-27T09:35:42.247Z,62.19
2023-03-27T09:38:35.929Z,64.96
2023-03-27T09:41:08.121Z,66.11
2023-03-27T09:44:06.431Z,68.96
2023-03-27T09:46:36.765Z,68.16
2023-03-27T09:49:12.099Z,69.51
2023-03-27T09:51:46.126Z,68.75
2023-03-27T09:54:17.861Z,66.00
2023-03-27T09:56:51.971Z,66.57
2023-03-27T09:59:33.000Z,66.17
2023-03-27T10:02:21.140Z,66.36
2023-03-27T10:04:59.449Z,66.84
2023-03-27T10:07:27.918Z,64.43
2023-03-27T10:10:06.889Z,65.10
2023-03-27T10:12:35.797Z,64.56
2023-03-27T10:15:05.938Z,65.27
2023-03-27T10:17:39.340Z,66.24
2023-03-27T10:20:13.881Z,64.63
2023-03-27T10:22:43.189Z,64.47
2023-03-27T10:25:18.432Z,66.26
2023-03-27T10:27:46.681Z,65.59
2023-03-27T10:30:27.361Z,64.96
2023-03-27T10:32:55.564Z,62.00
2023-03-27T10:35:37.024Z,61.64
2023-03-27T10:38:14.306Z,60.92
2023-03-27T10:40:44.939Z,60.15
2023-03-27T10:43:27.084Z,59.46
2023-03-27T10:46:07.487Z,59.98
2023-03-27T10:49:00.308Z,59.70
2023-03-27T10:51:46.744Z,59.93
2023-03-27T10:54:31.989Z,59.34
2023-03-27T10:57:10.294Z,60.34
2023-03-27T11:00:13.512Z,59.95
2023-03-27T11:02:47.613Z,61.12
2023-03-27T11:05:19.670Z,59.70
2023-03-27T11:07:52.354Z,58.58
2023-03-27T11:10:24.361Z,61.08
2023-03-27T11:12:56.232Z,61.24
2023-03-27T11:15:28.453Z,62.27
2023-03-27T11:18:14.460Z,66.42
2023-03-27T11:21:01.998Z,65.73
2023-03-27T11:23:35.455Z,67.95
2023-03-27T11:26:06.043Z,69.75
2023-03-27T11:28:43.328Z,70.01
2023-03-27T11:31:32.282Z,71.17
2023-03-27T11:34:07.261Z,71.38
2023-03-27T11:36:55.294Z,71.00
2023-03-27T11:39:39.318Z,72.55
2023-03-27T11:42:31.626Z,71.90
2023-03-27T11:45:04.431Z,72.09
2023-03-27T11:48:07.850Z,72.94
2023-03-27T11:50:42.341Z,72.89
2023-03-27T11:53:28.504Z,72.00
2023-03-27T11:56:16.148Z,72.54
2023-03-27T11:58:47.834Z,71.62
2023-03-27T12:01:28.135Z,71.98
2023-03-27T12:04:09.333Z,72.55
2023-03-27T12:06:43.625Z,72.75
2023-03-27T12:09:33.265Z,72.55
2023-03-27T12:12:11.979Z,71.52
2023-03-27T12:14:50.112Z,71.20
2023-03-27T12:17:21.860Z,70.40
2023-03-27T12:20:11.745Z,70.10
2023-03-27T12:22:47.952Z,71.50
2023-03-27T12:25:34.745Z,71.24
2023-03-27T12:28:41.268Z,71.45
2023-03-27T12:31:45.681Z,71.01
2023-03-27T12:34:34.393Z,70.92
2023-03-27T12:37:04.386Z,71.11
2023-03-27T12:39:31.798Z,70.80
2023-03-27T12:41:59.924Z,71.17
2023-03-27T12:44:30.341Z,70.45
2023-03-27T12:47:18.094Z,70.22
2023-03-27T12:49:48.575Z,70.49
2023-03-27T12:52:19.960Z,70.22
2023-03-27T12:55:17.573Z,69.64
2023-03-27T12:57:46.734Z,68.55
2023-03-27T13:00:23.880Z,66.87
2023-03-27T13:03:09.693Z,67.37
2023-03-27T13:06:08.476Z,67.03
2023-03-27T13:08:49.883Z,64.45
2023-03-27T13:11:30.286Z,63.78
2023-03-27T13:14:26.125Z,62.20
2023-03-27T13:17:03.222Z,62.94
2023-03-27T13:19:31.144Z,63.91
2023-03-27T13:22:24.429Z,64.02
2023-03-27T13:24:55.583Z,61.65
2023-03-27T13:27:38.691Z,62.67
2023-03-27T13:30:07.508Z,64.17
2023-03-27T13:32:40.605Z,63.93
2023-03-27T13:35:21.207Z,65.12
2023-03-27T13:37:49.057Z,65.95
2023-03-27T13:40:24.332Z,66.39
2023-03-27T13:43:26.763Z,65.77
2023-03-27T13:45:55.481Z,64.79
2023-03-27T13:48:40.104Z,64.15
2023-03-27T13:51:34.888Z,64.53
2023-03-27T13:54:42.340Z,63.82
2023-03-27T13:57:12.527Z,64.03
2023-03-27T13:59:51.581Z,63.31
2023-03-27T14:02:29.385Z,64.27
2023-03-27T14:05:12.696Z,64.04
2023-03-27T14:07:52.514Z,65.02
2023-03-27T14:10:35.592Z,66.10
2023-03-27T14:13:24.054Z,65.11
2023-03-27T14:16:03.842Z,64.69
2023-03-27T14:18:41.216Z,64.66
2023-03-27T14:21:31.352Z,63.69
2023-03-27T14:24:22.422Z,62.81
2023-03-27T14:26:52.742Z,62.22
2023-03-27T14:29:21.353Z,61.26
2023-03-27T14:31:49.321Z,62.19
2023-03-27T14:34:24.702Z,62.77
2023-03-27T14:36:56.168Z,62.86
2023-03-27T14:41:58.800Z,61.33
2023-03-27T14:44:30.329Z,63.02
2023-03-27T14:47:03.784Z,62.27
2023-03-27T14:49:38.816Z,63.15
2023-03-27T14:52:07.864Z,63.11
2023-03-27T14:54:52.264Z,63.41
2023-03-27T14:57:25.866Z,63.72
2023-03-27T14:59:54.757Z,63.32
2023-03-27T15:02:35.133Z,63.46
2023-03-27T15:05:12.143Z,64.17
2023-03-27T15:07:42.824Z,65.02
2023-03-27T15:10:24.509Z,65.92
2023-03-27T15:12:58.642Z,65.74
2023-03-27T15:15:38.961Z,63.83
2023-03-27T15:18:32.095Z,65.27
2023-03-27T15:21:58.520Z,65.29
2023-03-27T15:24:31.932Z,65.66
2023-03-27T15:27:00.897Z,62.74
2023-03-27T15:29:39.142Z,63.34
2023-03-27T15:32:12.101Z,62.26
2023-03-27T15:34:48.248Z,61.96
2023-03-27T15:37:23.384Z,60.79
2023-03-27T15:40:07.301Z,60.39
2023-03-27T15:42:47.529Z,60.42
2023-03-27T15:45:16.883Z,59.62
2023-03-27T15:47:45.557Z,58.61
2023-03-27T15:50:19.663Z,58.96
2023-03-27T15:52:51.716Z,60.07
2023-03-27T15:55:38.193Z,60.76
2023-03-27T15:58:16.509Z,60.51
2023-03-27T16:00:48.617Z,59.98
2023-03-27T16:03:22.615Z,61.04
2023-03-27T16:05:52.165Z,61.08
2023-03-27T16:08:28.654Z,60.93
2023-03-27T16:10:56.959Z,59.59
2023-03-27T16:13:37.244Z,60.76
2023-03-27T16:16:19.214Z,61.02
2023-03-27T16:18:49.322Z,60.86
2023-03-27T16:21:21.065Z,59.79
2023-03-27T16:23:48.873Z,59.52
2023-03-27T16:26:18.561Z,59.90
2023-03-27T16:28:46.193Z,60.61
2023-03-27T16:31:17.025Z,60.61
2023-03-27T16:33:45.806Z,58.97
2023-03-27T16:36:19.351Z,59.76
2023-03-27T16:38:46.813Z,59.43
2023-03-27T16:41:16.331Z,59.81
2023-03-27T16:43:44.900Z,60.98
2023-03-27T16:46:19.367Z,60.44
2023-03-27T16:48:47.149Z,60.97
2023-03-27T16:51:15.031Z,59.68
2023-03-27T16:53:42.410Z,58.54
2023-03-27T16:56:10.253Z,59.46
2023-03-27T16:58:38.469Z,58.79
2023-03-27T17:01:07.429Z,57.63
2023-03-27T17:03:37.159Z,55.92
2023-03-27T17:06:08.006Z,55.73
2023-03-27T17:08:36.649Z,55.20
2023-03-27T17:11:08.813Z,54.21
2023-03-27T17:13:37.380Z,53.39
2023-03-27T17:16:05.769Z,53.01
2023-03-27T17:18:34.777Z,51.94
2023-03-27T17:21:02.611Z,51.48
2023-03-27T17:23:30.059Z,51.19
2023-03-27T17:26:00.992Z,51.43
2023-03-27T17:28:29.357Z,51.77
2023-03-27T17:31:04.551Z,50.68
2023-03-27T17:33:33.644Z,50.91
2023-03-27T17:36:01.541Z,50.26
2023-03-27T17:38:29.563Z,50.95
2023-03-27T17:40:57.749Z,50.89
2023-03-27T17:43:25.176Z,50.30
2023-03-27T17:45:53.207Z,51.78
2023-03-27T17:48:20.969Z,50.80
2023-03-27T17:51:01.154Z,50.35
2023-03-27T17:53:37.230Z,50.88
2023-03-27T17:56:05.051Z,50.94
2023-03-27T17:58:34.167Z,50.67
2023-03-27T18:01:12.386Z,50.12
2023-03-27T18:03:40.317Z,48.93
2023-03-27T18:06:08.528Z,49.21
2023-03-27T18:08:36.166Z,49.73
2023-03-27T18:11:09.124Z,49.24
2023-03-27T18:13:37.539Z,50.24
2023-03-27T18:16:08.547Z,50.60
2023-03-27T18:18:39.444Z,49.48
2023-03-27T18:21:08.180Z,49.45
2023-03-27T18:23:35.572Z,49.37
2023-03-27T18:26:05.208Z,48.68
2023-03-27T18:28:33.782Z,48.34
2023-03-27T18:31:08.317Z,48.51
2023-03-27T18:33:36.285Z,48.29
2023-03-27T18:36:04.914Z,48.19
2023-03-27T18:38:32.656Z,48.79
2023-03-27T18:41:00.799Z,48.26
2023-03-27T18:43:28.597Z,49.10
2023-03-27T18:46:04.294Z,50.05
2023-03-27T18:48:32.058Z,49.20
2023-03-27T18:51:02.807Z,48.72
2023-03-27T18:53:30.988Z,48.16
2023-03-27T18:55:59.523Z,48.93
2023-03-27T18:58:28.555Z,48.56
2023-03-27T19:00:56.779Z,47.78
2023-03-27T19:03:26.340Z,48.23
2023-03-27T19:05:53.943Z,48.75
2023-03-27T19:08:21.908Z,48.84
2023-03-27T19:10:49.964Z,48.44
2023-03-27T19:13:17.824Z,48.54
2023-03-27T19:15:49.071Z,48.90
2023-03-27T19:18:18.664Z,47.88
2023-03-27T19:20:51.492Z,49.17
2023-03-27T19:23:19.777Z,50.09
2023-03-27T19:25:48.793Z,47.71
2023-03-27T19:28:17.101Z,48.36
2023-03-27T19:30:47.636Z,49.19
2023-03-27T19:33:15.603Z,49.14
2023-03-27T19:35:43.055Z,49.10
2023-03-27T19:38:13.023Z,48.59
2023-03-27T19:40:40.643Z,48.98
2023-03-27T19:43:08.111Z,49.26
2023-03-27T19:45:38.048Z,49.79
2023-03-27T19:48:05.687Z,50.02
2023-03-27T19:50:33.371Z,50.12
2023-03-27T19:53:08.841Z,50.54
2023-03-27T19:55:37.574Z,49.97
2023-03-27T19:58:05.455Z,50.51
2023-03-27T20:00:35.034Z,50.12
2023-03-27T20:03:02.936Z,50.76
2023-03-27T20:05:30.877Z,49.99
2023-03-27T20:08:01.041Z,51.15
2023-03-27T20:10:28.763Z,50.11
2023-03-27T20:12:56.413Z,51.71
2023-03-27T20:15:23.928Z,51.95
2023-03-27T20:17:54.986Z,49.27
2023-03-27T20:20:22.542Z,49.52
2023-03-27T20:22:57.640Z,49.80
2023-03-27T20:25:28.032Z,49.58
2023-03-27T20:27:56.326Z,49.26
2023-03-27T20:30:24.027Z,47.39
2023-03-27T20:32:52.375Z,49.39
2023-03-27T20:35:24.742Z,49.60
2023-03-27T20:37:56.066Z,49.76
2023-03-27T20:40:25.068Z,48.22
2023-03-27T20:43:03.142Z,49.06
2023-03-27T20:45:31.421Z,49.68
2023-03-27T20:48:05.064Z,49.14
2023-03-27T20:50:35.377Z,49.28
2023-03-27T20:53:04.404Z,49.73
2023-03-27T20:55:34.877Z,50.33
2023-03-27T20:58:07.163Z,49.30
2023-03-27T21:00:35.638Z,50.03
2023-03-27T21:03:03.204Z,48.76
2023-03-27T21:05:32.651Z,47.77
2023-03-27T21:08:00.147Z,48.10
2023-03-27T21:10:27.587Z,48.58
2023-03-27T21:12:56.732Z,47.92
2023-03-27T21:15:24.404Z,50.20
2023-03-27T21:17:51.934Z,49.80
2023-03-27T21:20:19.683Z,48.42
2023-03-27T21:22:52.634Z,48.99
2023-03-27T21:25:21.414Z,46.69
2023-03-27T21:27:51.036Z,48.59
2023-03-27T21:30:18.511Z,49.46
2023-03-27T21:32:47.195Z,48.33
2023-03-27T21:35:14.706Z,47.92
2023-03-27T21:37:42.432Z,45.94
2023-03-27T21:40:10.870Z,46.40
2023-03-27T21:42:38.250Z,48.66
2023-03-27T21:45:06.297Z,49.05
2023-03-27T21:47:46.498Z,46.94
2023-03-27T21:50:14.971Z,46.36
2023-03-27T21:52:42.674Z,46.55
2023-03-27T21:55:10.030Z,48.96
2023-03-27T21:57:37.398Z,47.74
2023-03-27T22:00:07.286Z,47.84
2023-03-27T22:02:41.282Z,47.49
2023-03-27T22:05:09.218Z,47.41
2023-03-27T22:07:36.864Z,47.59
2023-03-27T22:10:06.343Z,48.41
2023-03-27T22:12:36.011Z,47.51
2023-03-27T22:15:04.423Z,48.80
2023-03-27T22:17:31.893Z,47.45
2023-03-27T22:19:59.679Z,48.96
2023-03-27T22:22:27.160Z,50.07
2023-03-27T22:24:54.638Z,48.78
2023-03-27T22:27:22.349Z,49.29
2023-03-27T22:29:49.740Z,49.20
2023-03-27T22:32:17.124Z,51.04
2023-03-27T22:34:44.778Z,51.33
2023-03-27T22:37:12.181Z,48.75
2023-03-27T22:39:39.593Z,48.60
2023-03-27T22:42:07.246Z,47.33
2023-03-27T22:44:34.780Z,48.92
2023-03-27T22:47:02.176Z,48.13
2023-03-27T22:49:29.832Z,46.99
2023-03-27T22:51:57.203Z,47.33
2023-03-27T22:54:24.695Z,47.42
2023-03-27T22:56:55.136Z,48.05
2023-03-27T22:59:22.584Z,48.30
2023-03-27T23:01:50.044Z,48.11
2023-03-27T23:04:17.768Z,49.31
2023-03-27T23:06:45.359Z,48.17
2023-03-27T23:09:12.788Z,48.65
2023-03-27T23:11:41.337Z,48.51
2023-03-27T23:14:08.695Z,48.58
2023-03-27T23:16:36.928Z,48.18
2023-03-27T23:19:04.849Z,48.75
2023-03-27T23:21:32.391Z,49.31
2023-03-27T23:23:59.844Z,48.40
2023-03-27T23:26:27.680Z,49.06
2023-03-27T23:28:55.054Z,49.20
2023-03-27T23:31:22.678Z,49.29
2023-03-27T23:33:51.219Z,47.77
2023-03-27T23:36:21.614Z,48.82
2023-03-27T23:38:49.830Z,48.55
2023-03-27T23:41:17.958Z,48.91
2023-03-27T23:43:45.994Z,49.10
2023-03-27T23:46:13.868Z,48.76
2023-03-27T23:48:42.961Z,48.79
2023-03-27T23:51:11.819Z,46.47
2023-03-27T23:53:39.309Z,46.77
2023-03-27T23:56:07.612Z,48.13
2023-03-27T23:58:37.135Z,47.27
